createdAt,value
2022-08-30T00:01:33.361Z,58.34
2022-08-30T00:19:58.265Z,57.93
2022-08-30T00:22:25.311Z,57.83
2022-08-30T01:11:11.850Z,55.27
2022-08-30T01:13:39.007Z,55.43
2022-08-30T01:16:06.117Z,55.48
2022-08-30T01:31:42.229Z,56.92
2022-08-30T01:34:09.222Z,57.28
2022-08-30T01:37:22.571Z,55.93
2022-08-30T01:40:15.114Z,55.69
2022-08-30T02:23:59.277Z,54.82
2022-08-30T02:26:26.227Z,54.91
2022-08-30T02:28:53.945Z,54.92
2022-08-30T02:31:40.816Z,55.17
2022-08-30T02:34:07.995Z,55.87
2022-08-30T02:36:34.753Z,56.05
2022-08-30T02:39:01.552Z,56.18
2022-08-30T02:41:28.394Z,55.91
2022-08-30T02:43:58.650Z,55.90
2022-08-30T03:47:13.472Z,59.67
2022-08-30T04:03:11.522Z,59.55
2022-08-30T04:05:50.382Z,59.72
2022-08-30T04:08:16.966Z,59.69
2022-08-30T04:10:43.960Z,59.29
2022-08-30T04:13:34.617Z,59.63
2022-08-30T04:37:32.972Z,56.87
2022-08-30T04:40:02.493Z,56.42
2022-08-30T04:42:32.222Z,55.94
2022-08-30T05:03:54.291Z,55.32
2022-08-30T05:06:21.950Z,55.07
2022-08-30T05:08:50.003Z,55.71
2022-08-30T05:11:17.727Z,56.54
2022-08-30T05:13:44.878Z,55.52
2022-08-30T05:16:17.574Z,55.11
2022-08-30T05:18:46.131Z,54.67
2022-08-30T05:21:16.437Z,53.93
2022-08-30T05:23:44.199Z,53.91
2022-08-30T05:26:17.963Z,53.08
2022-08-30T05:28:45.105Z,52.97
2022-08-30T05:39:11.602Z,51.26
2022-08-30T05:41:39.069Z,51.13
2022-08-30T05:44:07.721Z,51.60
2022-08-30T05:46:35.775Z,51.37
2022-08-30T05:49:26.647Z,50.97
2022-08-30T05:51:54.618Z,50.76
2022-08-30T05:54:21.343Z,50.88
2022-08-30T05:56:47.986Z,50.32
2022-08-30T05:59:15.246Z,50.42
2022-08-30T06:01:48.146Z,50.31
2022-08-30T06:05:01.962Z,50.06
2022-08-30T06:07:49.534Z,49.52
2022-08-30T06:10:17.277Z,50.37
2022-08-30T06:12:44.113Z,49.53
2022-08-30T06:15:11.491Z,49.23
2022-08-30T06:17:39.885Z,49.44
2022-08-30T06:20:07.412Z,50.45
2022-08-30T06:25:11.905Z,49.14
2022-08-30T06:27:38.661Z,49.61
2022-08-30T06:30:11.049Z,50.50
2022-08-30T06:32:39.065Z,51.21
2022-08-30T06:35:07.313Z,50.16
2022-08-30T06:37:34.570Z,50.11
2022-08-30T06:42:36.927Z,48.79
2022-08-30T06:47:55.414Z,48.35
2022-08-30T06:52:59.906Z,46.79
2022-08-30T06:55:27.511Z,46.96
2022-08-30T06:57:54.176Z,46.28
2022-08-30T07:00:20.961Z,45.89
2022-08-30T07:02:47.700Z,45.36
2022-08-30T07:05:18.619Z,45.20
2022-08-30T07:07:45.704Z,45.06
2022-08-30T07:10:13.103Z,44.86
2022-08-30T07:12:39.717Z,44.28
2022-08-30T07:15:06.850Z,43.56
2022-08-30T07:17:53.304Z,44.73
2022-08-30T07:20:21.593Z,42.68
2022-08-30T07:22:48.906Z,42.03
2022-08-30T07:25:16.177Z,41.89
2022-08-30T07:27:42.810Z,40.77
2022-08-30T07:30:10.072Z,41.34
2022-08-30T07:32:38.431Z,41.42
2022-08-30T07:35:05.989Z,40.77
2022-08-30T07:37:32.629Z,40.16
2022-08-30T07:39:59.351Z,40.73
2022-08-30T07:42:26.059Z,40.77
2022-08-30T07:44:56.474Z,41.23
2022-08-30T07:47:23.531Z,40.80
2022-08-30T07:49:50.139Z,40.82
2022-08-30T07:52:16.855Z,39.88
2022-08-30T07:54:43.476Z,39.90
2022-08-30T07:57:11.388Z,40.34
2022-08-30T07:59:38.067Z,39.49
2022-08-30T08:02:05.084Z,40.09
2022-08-30T08:04:33.198Z,39.45
2022-08-30T08:06:59.787Z,39.29
2022-08-30T08:09:26.583Z,40.33
2022-08-30T08:11:53.186Z,40.35
2022-08-30T08:14:21.705Z,40.56
2022-08-30T08:16:48.550Z,40.46
2022-08-30T08:19:15.854Z,39.35
2022-08-30T08:21:42.463Z,40.28
2022-08-30T08:24:09.245Z,40.37
2022-08-30T08:26:38.048Z,39.62
2022-08-30T08:29:09.936Z,39.89
2022-08-30T08:31:37.470Z,40.29
2022-08-30T08:34:05.984Z,39.05
2022-08-30T08:36:34.462Z,40.73
2022-08-30T08:39:01.886Z,40.25
2022-08-30T08:41:56.079Z,41.00
2022-08-30T08:44:44.122Z,41.14
2022-08-30T08:47:13.787Z,39.65
2022-08-30T08:49:44.390Z,39.75
2022-08-30T08:52:37.271Z,39.50
2022-08-30T08:55:12.335Z,38.47
2022-08-30T08:57:39.749Z,39.07
2022-08-30T09:00:09.021Z,38.96
2022-08-30T09:02:41.056Z,38.05
2022-08-30T09:05:11.434Z,37.69
2022-08-30T09:07:42.149Z,37.91
2022-08-30T09:10:09.067Z,38.32
2022-08-30T09:12:36.125Z,37.82
2022-08-30T09:15:41.094Z,36.18
2022-08-30T09:18:18.915Z,36.07
2022-08-30T09:20:50.209Z,36.53
2022-08-30T09:23:17.476Z,36.23
2022-08-30T09:25:55.162Z,36.03
2022-08-30T09:28:35.322Z,36.06
2022-08-30T09:31:23.600Z,36.42
2022-08-30T09:34:05.300Z,35.75
2022-08-30T09:36:42.761Z,36.21
2022-08-30T09:39:37.700Z,35.93
2022-08-30T09:42:22.623Z,35.43
2022-08-30T09:44:49.757Z,34.63
2022-08-30T09:47:34.364Z,34.36
2022-08-30T09:50:11.213Z,35.27
2022-08-30T09:53:13.109Z,33.80
2022-08-30T09:55:48.712Z,33.97
2022-08-30T09:58:30.065Z,34.94
2022-08-30T10:01:09.213Z,34.42
2022-08-30T10:03:50.171Z,36.24
2022-08-30T10:06:44.436Z,36.07
2022-08-30T10:10:09.377Z,35.25
2022-08-30T10:12:44.504Z,34.96
2022-08-30T10:15:15.068Z,34.46
2022-08-30T10:18:23.672Z,35.26
2022-08-30T10:21:09.352Z,35.85
2022-08-30T10:23:44.566Z,35.06
2022-08-30T10:26:15.120Z,35.38
2022-08-30T10:29:08.884Z,35.61
2022-08-30T10:31:56.403Z,34.35
2022-08-30T10:34:35.651Z,34.17
2022-08-30T10:37:11.594Z,34.46
2022-08-30T10:39:45.797Z,34.97
2022-08-30T10:42:37.997Z,34.64
2022-08-30T10:45:14.854Z,33.49
2022-08-30T10:48:23.617Z,33.44
2022-08-30T10:50:54.370Z,33.84
2022-08-30T10:53:32.931Z,35.01
2022-08-30T10:56:29.443Z,33.63
2022-08-30T10:58:58.422Z,34.81
2022-08-30T11:01:34.327Z,34.13
2022-08-30T11:04:00.939Z,33.95
2022-08-30T11:06:54.025Z,34.12
2022-08-30T11:09:30.162Z,33.64
2022-08-30T11:12:20.915Z,34.28
2022-08-30T11:14:48.206Z,33.01
2022-08-30T11:17:47.718Z,33.51
2022-08-30T11:20:51.842Z,34.93
2022-08-30T11:23:18.548Z,33.47
2022-08-30T11:25:57.917Z,33.03
2022-08-30T11:28:36.760Z,32.79
2022-08-30T11:31:18.234Z,34.31
2022-08-30T11:33:47.934Z,34.41
2022-08-30T11:36:37.852Z,34.74
2022-08-30T11:39:07.413Z,33.29
2022-08-30T11:41:42.596Z,32.46
2022-08-30T11:44:13.747Z,32.43
2022-08-30T11:46:42.606Z,32.79
2022-08-30T11:49:15.547Z,33.04
2022-08-30T11:54:53.045Z,33.54
2022-08-30T11:57:49.924Z,32.78
2022-08-30T12:00:35.847Z,32.73
2022-08-30T12:03:08.110Z,33.96
2022-08-30T12:05:40.956Z,34.34
2022-08-30T12:08:09.149Z,33.26
2022-08-30T12:10:42.604Z,34.46
2022-08-30T12:13:10.780Z,34.20
2022-08-30T12:15:58.685Z,34.60
2022-08-30T12:18:51.415Z,33.89
2022-08-30T12:21:17.957Z,34.38
2022-08-30T12:23:54.008Z,34.17
2022-08-30T12:26:36.859Z,33.82
2022-08-30T12:29:12.567Z,34.26
2022-08-30T12:32:19.322Z,33.43
2022-08-30T12:34:45.908Z,32.80
2022-08-30T12:37:26.419Z,33.45
2022-08-30T12:40:16.691Z,32.49
2022-08-30T12:43:05.779Z,33.15
2022-08-30T12:45:41.706Z,32.26
2022-08-30T12:48:15.580Z,33.78
2022-08-30T12:50:52.046Z,32.84
2022-08-30T12:53:24.352Z,32.14
2022-08-30T12:55:52.761Z,31.95
2022-08-30T12:58:54.112Z,33.26
2022-08-30T13:01:46.975Z,33.54
2022-08-30T13:04:17.107Z,34.07
2022-08-30T13:07:02.185Z,34.94
2022-08-30T13:09:42.803Z,33.88
2022-08-30T13:12:24.883Z,34.09
2022-08-30T13:14:53.714Z,33.88
2022-08-30T13:17:28.093Z,33.74
2022-08-30T13:20:12.551Z,34.16
2022-08-30T13:23:05.216Z,33.92
2022-08-30T13:25:32.764Z,34.18
2022-08-30T13:28:01.164Z,33.32
2022-08-30T13:30:29.242Z,33.92
2022-08-30T13:32:56.274Z,34.38
2022-08-30T13:35:23.950Z,34.13
2022-08-30T13:37:51.351Z,34.12
2022-08-30T13:40:21.298Z,34.00
2022-08-30T13:42:48.461Z,33.31
2022-08-30T13:48:05.763Z,33.97
2022-08-30T13:50:33.185Z,33.40
2022-08-30T13:53:00.412Z,33.87
2022-08-30T13:55:27.487Z,33.36
2022-08-30T13:57:55.484Z,34.23
2022-08-30T14:00:25.105Z,33.82
2022-08-30T14:02:57.180Z,32.88
2022-08-30T14:11:04.535Z,33.24
2022-08-30T14:13:31.808Z,33.81
2022-08-30T14:18:47.613Z,34.00
2022-08-30T14:21:15.619Z,34.00
2022-08-30T14:23:42.300Z,33.70
2022-08-30T14:26:21.634Z,33.66
2022-08-30T14:28:51.498Z,33.24
2022-08-30T14:31:19.921Z,33.37
2022-08-30T14:33:47.181Z,33.72
2022-08-30T14:36:15.458Z,33.69
2022-08-30T14:38:43.414Z,33.45
2022-08-30T14:41:11.033Z,32.70
2022-08-30T14:43:40.644Z,33.11
2022-08-30T14:46:08.646Z,33.05
2022-08-30T14:48:37.084Z,34.02
2022-08-30T14:51:15.514Z,33.45
2022-08-30T14:53:42.453Z,33.89
2022-08-30T14:56:12.146Z,33.11
2022-08-30T14:58:38.779Z,33.26
2022-08-30T15:01:10.227Z,33.65
2022-08-30T15:03:40.582Z,33.76
2022-08-30T15:06:08.312Z,34.12
2022-08-30T15:08:36.604Z,33.86
2022-08-30T15:11:13.867Z,33.43
2022-08-30T15:13:42.422Z,32.81
2022-08-30T15:16:18.134Z,32.89
2022-08-30T15:18:45.010Z,33.10
2022-08-30T15:21:12.054Z,32.95
2022-08-30T15:23:40.269Z,32.75
2022-08-30T15:26:08.263Z,33.02
2022-08-30T15:28:36.730Z,34.62
2022-08-30T15:31:08.687Z,34.29
2022-08-30T15:33:36.546Z,34.15
2022-08-30T15:36:04.911Z,34.63
2022-08-30T15:38:32.456Z,35.22
2022-08-30T15:41:05.673Z,34.95
2022-08-30T15:43:32.386Z,35.08
2022-08-30T15:46:22.807Z,36.41
2022-08-30T15:48:52.052Z,35.61
2022-08-30T15:51:19.281Z,34.83
2022-08-30T15:53:46.479Z,34.23
2022-08-30T15:56:13.863Z,34.81
2022-08-30T15:58:40.919Z,35.38
2022-08-30T16:01:09.074Z,35.15
2022-08-30T16:03:37.919Z,35.68
2022-08-30T16:06:04.877Z,35.68
2022-08-30T16:08:31.764Z,35.84
2022-08-30T16:10:58.581Z,35.52
2022-08-30T16:13:25.219Z,36.09
2022-08-30T16:15:54.553Z,35.05
2022-08-30T16:18:21.207Z,34.68
2022-08-30T16:20:47.870Z,33.97
2022-08-30T16:23:14.485Z,34.14
2022-08-30T16:25:41.499Z,34.48
2022-08-30T16:28:09.361Z,34.57
2022-08-30T16:30:37.290Z,34.12
2022-08-30T16:33:04.269Z,34.31
2022-08-30T16:35:32.775Z,34.61
2022-08-30T16:37:59.598Z,35.06
2022-08-30T16:40:26.253Z,35.23
2022-08-30T16:42:52.954Z,35.42
2022-08-30T16:45:20.163Z,35.44
2022-08-30T16:47:46.810Z,35.67
2022-08-30T16:50:16.704Z,35.51
2022-08-30T16:52:44.605Z,35.67
2022-08-30T16:55:11.276Z,36.18
2022-08-30T16:57:38.772Z,35.24
2022-08-30T17:00:13.078Z,35.16
2022-08-30T17:02:40.682Z,35.13
2022-08-30T17:05:13.322Z,35.90
2022-08-30T17:07:39.991Z,35.43
2022-08-30T17:10:06.997Z,35.01
2022-08-30T17:12:37.502Z,35.06
2022-08-30T17:15:06.851Z,35.02
2022-08-30T17:20:10.426Z,35.04
2022-08-30T17:22:37.414Z,34.94
2022-08-30T17:30:28.327Z,34.57
2022-08-30T17:32:55.011Z,34.72
2022-08-30T17:35:22.382Z,34.65
2022-08-30T17:37:49.224Z,34.61
2022-08-30T17:40:43.746Z,34.63
2022-08-30T17:43:13.295Z,34.66
2022-08-30T17:45:39.937Z,34.68
2022-08-30T18:01:14.689Z,34.91
2022-08-30T18:03:42.266Z,35.06
2022-08-30T18:06:13.527Z,35.47
2022-08-30T18:08:40.617Z,35.49
2022-08-30T18:11:29.673Z,35.27
2022-08-30T18:13:56.412Z,35.33
2022-08-30T18:16:26.422Z,35.49
2022-08-30T18:18:57.307Z,35.72
2022-08-30T18:21:25.411Z,35.87
2022-08-30T18:23:55.150Z,35.80
2022-08-30T18:46:19.324Z,36.18
2022-08-30T19:05:53.594Z,36.37
2022-08-30T19:08:20.288Z,36.38
2022-08-30T19:10:47.169Z,36.51
2022-08-30T19:13:14.864Z,36.79
2022-08-30T19:15:41.626Z,36.69
2022-08-30T19:18:17.362Z,36.83
2022-08-30T19:20:45.686Z,37.11
2022-08-30T19:23:14.660Z,37.34
2022-08-30T19:25:41.464Z,37.68
2022-08-30T19:28:09.097Z,37.67
2022-08-30T19:30:36.543Z,37.85
2022-08-30T19:33:03.524Z,37.68
2022-08-30T19:35:32.368Z,38.19
2022-08-30T19:46:05.117Z,38.68
2022-08-30T19:48:32.785Z,38.87
2022-08-30T19:51:00.441Z,38.77
2022-08-30T19:53:27.320Z,38.32
2022-08-30T19:55:54.390Z,38.31
2022-08-30T19:58:21.035Z,38.15
2022-08-30T20:00:54.279Z,38.10
2022-08-30T20:03:27.857Z,38.38
2022-08-30T20:05:54.561Z,38.68
2022-08-30T20:08:22.451Z,38.98
2022-08-30T20:10:49.116Z,38.72
2022-08-30T20:13:19.764Z,38.79
2022-08-30T20:15:56.611Z,38.74
2022-08-30T20:18:26.067Z,39.58
2022-08-30T20:20:53.576Z,39.26
2022-08-30T20:23:23.642Z,39.31
2022-08-30T20:25:53.251Z,39.00
2022-08-30T20:28:21.093Z,39.96
2022-08-30T20:30:48.483Z,39.99
2022-08-30T20:33:16.060Z,39.82
2022-08-30T20:35:48.731Z,40.03
2022-08-30T20:38:21.389Z,40.34
2022-08-30T20:40:51.209Z,40.54
2022-08-30T20:43:19.384Z,40.39
2022-08-30T20:45:47.216Z,39.87
2022-08-30T21:04:41.597Z,40.93
2022-08-30T21:07:15.754Z,40.99
2022-08-30T21:12:50.952Z,40.73
2022-08-30T21:15:36.709Z,41.00
2022-08-30T21:37:53.332Z,43.92
2022-08-30T21:40:20.839Z,44.50
2022-08-30T21:42:47.490Z,44.28
2022-08-30T21:45:15.373Z,43.86
2022-08-30T21:47:42.412Z,43.98
2022-08-30T21:50:09.475Z,43.76
2022-08-30T21:52:36.344Z,43.73
2022-08-30T21:55:05.400Z,43.47
2022-08-30T21:57:32.926Z,43.90
2022-08-30T21:59:59.842Z,43.87
2022-08-30T22:07:56.879Z,43.76
2022-08-30T22:10:23.905Z,43.40
2022-08-30T22:12:50.606Z,44.00
2022-08-30T22:20:40.272Z,43.95
2022-08-30T22:23:08.286Z,43.63
2022-08-30T22:25:35.128Z,43.79
2022-08-30T22:30:40.041Z,43.98
2022-08-30T22:33:07.100Z,44.23
2022-08-30T22:41:31.022Z,44.37
2022-08-30T22:47:40.019Z,44.37
2022-08-30T22:50:09.880Z,45.07
2022-08-30T22:52:36.550Z,46.01
2022-08-30T22:55:04.259Z,46.15
2022-08-30T22:57:31.150Z,45.68
2022-08-30T22:59:57.748Z,45.03
2022-08-30T23:02:37.099Z,44.83
2022-08-30T23:05:05.408Z,45.33
2022-08-30T23:07:32.024Z,45.17
2022-08-30T23:09:59.290Z,45.17
2022-08-30T23:12:26.834Z,45.61
2022-08-30T23:14:54.101Z,45.53
2022-08-30T23:17:59.072Z,45.69
2022-08-30T23:21:17.209Z,45.84
2022-08-30T23:24:02.372Z,46.33
2022-08-30T23:26:47.774Z,46.46
2022-08-30T23:29:33.174Z,47.24
2022-08-30T23:32:19.119Z,46.96
2022-08-30T23:35:04.712Z,47.42
2022-08-30T23:38:08.595Z,46.77
2022-08-30T23:40:54.105Z,46.74
2022-08-30T23:43:39.543Z,46.60
2022-08-30T23:46:24.566Z,47.75
2022-08-30T23:49:09.866Z,47.92
2022-08-30T23:56:01.363Z,47.07
2022-08-30T23:58:46.434Z,47.83
